sensor_id;sensor_type;location;lat;lon;timestamp;pressure;altitude;pressure_sealevel;temperature;humidity
40490;BME280;26196;52.302;10.572;2023-04-29T00:00:52;100020.66;;;16.11;48.36
40490;BME280;26196;52.302;10.572;2023-04-29T00:04:53;100022.88;;;16.19;48.78
40490;BME280;26196;52.302;10.572;2023-04-29T00:08:53;100022.00;;;16.18;49.34
40490;BME280;26196;52.302;10.572;2023-04-29T00:13:27;100029.06;;;16.18;49.43
40490;BME280;26196;52.302;10.572;2023-04-29T00:17:28;100024.75;;;16.17;50.12
40490;BME280;26196;52.302;10.572;2023-04-29T00:21:28;100018.63;;;16.16;50.80
40490;BME280;26196;52.302;10.572;2023-04-29T00:25:29;100021.34;;;16.15;50.95
40490;BME280;26196;52.302;10.572;2023-04-29T00:30:05;100025.75;;;16.14;51.47
40490;BME280;26196;52.302;10.572;2023-04-29T00:34:06;100031.72;;;16.18;51.48
40490;BME280;26196;52.302;10.572;2023-04-29T00:38:06;100028.31;;;16.16;52.15
40490;BME280;26196;52.302;10.572;2023-04-29T00:42:07;100026.69;;;16.13;52.51
40490;BME280;26196;52.302;10.572;2023-04-29T00:46:42;100029.19;;;16.16;51.67
40490;BME280;26196;52.302;10.572;2023-04-29T00:50:42;100042.28;;;16.18;52.02
40490;BME280;26196;52.302;10.572;2023-04-29T00:54:43;100042.19;;;16.19;52.33
40490;BME280;26196;52.302;10.572;2023-04-29T00:59:17;100043.13;;;16.18;51.60
40490;BME280;26196;52.302;10.572;2023-04-29T01:03:18;100046.53;;;16.21;52.00
40490;BME280;26196;52.302;10.572;2023-04-29T01:07:33;100037.75;;;16.20;51.41
40490;BME280;26196;52.302;10.572;2023-04-29T01:11:45;100040.22;;;16.23;51.63
40490;BME280;26196;52.302;10.572;2023-04-29T01:20:00;100047.22;;;16.24;50.88
40490;BME280;26196;52.302;10.572;2023-04-29T01:24:01;100041.25;;;16.21;52.03
40490;BME280;26196;52.302;10.572;2023-04-29T01:45:10;100067.00;;;16.17;53.30
40490;BME280;26196;52.302;10.572;2023-04-29T01:49:14;100062.56;;;16.17;53.17
40490;BME280;26196;52.302;10.572;2023-04-29T01:53:14;100072.16;;;16.18;53.61
40490;BME280;26196;52.302;10.572;2023-04-29T01:57:14;100077.38;;;16.20;53.42
40490;BME280;26196;52.302;10.572;2023-04-29T02:01:16;100079.34;;;16.16;53.35
40490;BME280;26196;52.302;10.572;2023-04-29T02:05:53;100080.25;;;16.15;53.73
40490;BME280;26196;52.302;10.572;2023-04-29T02:09:53;100088.09;;;16.17;53.72
40490;BME280;26196;52.302;10.572;2023-04-29T02:13:53;100089.91;;;16.16;54.00
40490;BME280;26196;52.302;10.572;2023-04-29T02:17:53;100099.50;;;16.17;53.52
40490;BME280;26196;52.302;10.572;2023-04-29T02:21:54;100097.81;;;16.16;53.01
40490;BME280;26196;52.302;10.572;2023-04-29T02:26:29;100104.03;;;16.15;53.49
40490;BME280;26196;52.302;10.572;2023-04-29T02:30:29;100104.13;;;16.14;53.56
40490;BME280;26196;52.302;10.572;2023-04-29T02:34:30;100103.44;;;16.10;53.63
40490;BME280;26196;52.302;10.572;2023-04-29T02:38:31;100111.75;;;16.18;53.11
40490;BME280;26196;52.302;10.572;2023-04-29T02:43:05;100125.16;;;16.15;53.51
40490;BME280;26196;52.302;10.572;2023-04-29T02:47:06;100117.41;;;16.12;53.83
40490;BME280;26196;52.302;10.572;2023-04-29T02:51:07;100110.75;;;16.05;54.18
40490;BME280;26196;52.302;10.572;2023-04-29T02:55:07;100119.28;;;16.10;53.97
40490;BME280;26196;52.302;10.572;2023-04-29T02:59:08;100123.72;;;16.10;53.76
40490;BME280;26196;52.302;10.572;2023-04-29T03:03:09;100123.78;;;16.08;54.01
40490;BME280;26196;52.302;10.572;2023-04-29T03:07:10;100130.38;;;16.01;54.17
40490;BME280;26196;52.302;10.572;2023-04-29T03:11:47;100130.97;;;16.06;54.08
40490;BME280;26196;52.302;10.572;2023-04-29T03:15:48;100134.63;;;16.04;54.21
40490;BME280;26196;52.302;10.572;2023-04-29T03:20:22;100136.38;;;16.03;54.20
40490;BME280;26196;52.302;10.572;2023-04-29T03:24:23;100111.28;;;15.96;53.69
40490;BME280;26196;52.302;10.572;2023-04-29T03:28:24;100135.47;;;16.04;53.83
40490;BME280;26196;52.302;10.572;2023-04-29T03:32:24;100146.94;;;16.03;53.99
40490;BME280;26196;52.302;10.572;2023-04-29T03:37:01;100141.00;;;16.00;54.26
40490;BME280;26196;52.302;10.572;2023-04-29T03:41:02;100144.47;;;16.00;54.19
40490;BME280;26196;52.302;10.572;2023-04-29T03:45:02;100147.97;;;16.01;54.07
40490;BME280;26196;52.302;10.572;2023-04-29T03:49:03;100152.34;;;16.02;53.85
40490;BME280;26196;52.302;10.572;2023-04-29T03:57:40;100161.94;;;16.03;53.62
40490;BME280;26196;52.302;10.572;2023-04-29T04:01:41;100158.47;;;16.02;53.38
40490;BME280;26196;52.302;10.572;2023-04-29T04:05:41;100173.22;;;16.06;53.52
40490;BME280;26196;52.302;10.572;2023-04-29T04:10:18;100185.53;;;16.06;53.54
40490;BME280;26196;52.302;10.572;2023-04-29T04:14:19;100198.84;;;16.04;53.45
40490;BME280;26196;52.302;10.572;2023-04-29T04:18:19;100197.44;;;15.97;53.71
40490;BME280;26196;52.302;10.572;2023-04-29T04:22:54;100201.72;;;16.00;53.62
40490;BME280;26196;52.302;10.572;2023-04-29T04:26:54;100207.09;;;15.98;53.45
40490;BME280;26196;52.302;10.572;2023-04-29T04:30:54;100222.75;;;16.01;53.24
40490;BME280;26196;52.302;10.572;2023-04-29T04:35:29;100232.53;;;15.99;53.52
40490;BME280;26196;52.302;10.572;2023-04-29T04:39:30;100236.53;;;15.90;53.78
40490;BME280;26196;52.302;10.572;2023-04-29T04:43:31;100239.19;;;15.90;53.69
40490;BME280;26196;52.302;10.572;2023-04-29T04:48:08;100250.59;;;15.91;53.66
40490;BME280;26196;52.302;10.572;2023-04-29T04:52:09;100253.47;;;15.86;53.73
40490;BME280;26196;52.302;10.572;2023-04-29T04:56:44;100262.22;;;15.87;53.63
40490;BME280;26196;52.302;10.572;2023-04-29T05:00:45;100273.56;;;15.89;53.51
40490;BME280;26196;52.302;10.572;2023-04-29T05:05:22;100279.31;;;15.80;53.77
40490;BME280;26196;52.302;10.572;2023-04-29T05:09:23;100292.09;;;15.87;53.35
40490;BME280;26196;52.302;10.572;2023-04-29T05:13:23;100290.41;;;15.86;53.47
40490;BME280;26196;52.302;10.572;2023-04-29T05:17:58;100304.56;;;15.85;53.57
40490;BME280;26196;52.302;10.572;2023-04-29T05:21:58;100305.88;;;15.77;53.76
40490;BME280;26196;52.302;10.572;2023-04-29T05:25:58;100314.72;;;15.75;53.54
40490;BME280;26196;52.302;10.572;2023-04-29T05:29:59;100323.44;;;15.78;53.55
40490;BME280;26196;52.302;10.572;2023-04-29T05:33:59;100327.16;;;15.73;53.59
40490;BME280;26196;52.302;10.572;2023-04-29T05:42:37;100343.06;;;15.72;53.59
40490;BME280;26196;52.302;10.572;2023-04-29T05:46:37;100345.13;;;15.65;53.65
40490;BME280;26196;52.302;10.572;2023-04-29T05:51:12;100344.28;;;15.65;53.54
40490;BME280;26196;52.302;10.572;2023-04-29T05:55:12;100351.25;;;15.66;53.48
40490;BME280;26196;52.302;10.572;2023-04-29T05:59:13;100358.13;;;15.70;53.15
40490;BME280;26196;52.302;10.572;2023-04-29T06:07:50;100376.63;;;15.68;53.41
40490;BME280;26196;52.302;10.572;2023-04-29T06:11:51;100379.06;;;15.73;53.13
40490;BME280;26196;52.302;10.572;2023-04-29T06:16:25;100390.75;;;15.67;53.37
40490;BME280;26196;52.302;10.572;2023-04-29T06:20:27;100401.25;;;15.69;53.23
40490;BME280;26196;52.302;10.572;2023-04-29T06:24:27;100414.31;;;15.72;53.31
40490;BME280;26196;52.302;10.572;2023-04-29T06:28:27;100427.56;;;15.70;53.15
40490;BME280;26196;52.302;10.572;2023-04-29T06:32:29;100423.28;;;15.68;53.20
40490;BME280;26196;52.302;10.572;2023-04-29T06:36:29;100436.44;;;15.69;53.46
40490;BME280;26196;52.302;10.572;2023-04-29T06:40:30;100438.25;;;15.67;53.38
40490;BME280;26196;52.302;10.572;2023-04-29T06:44:30;100445.97;;;15.72;53.09
40490;BME280;26196;52.302;10.572;2023-04-29T06:48:30;100451.31;;;15.70;53.11
40490;BME280;26196;52.302;10.572;2023-04-29T06:52:31;100458.41;;;15.70;53.26
40490;BME280;26196;52.302;10.572;2023-04-29T06:57:06;100461.88;;;15.70;53.27
40490;BME280;26196;52.302;10.572;2023-04-29T07:01:07;100472.22;;;15.75;53.03
40490;BME280;26196;52.302;10.572;2023-04-29T07:05:42;100488.31;;;15.69;53.19
40490;BME280;26196;52.302;10.572;2023-04-29T07:09:44;100494.50;;;15.69;53.27
40490;BME280;26196;52.302;10.572;2023-04-29T07:13:45;100495.59;;;15.64;53.47
40490;BME280;26196;52.302;10.572;2023-04-29T07:18:19;100502.50;;;15.66;53.38
40490;BME280;26196;52.302;10.572;2023-04-29T07:22:54;100522.56;;;15.70;53.25
40490;BME280;26196;52.302;10.572;2023-04-29T07:27:32;100530.44;;;15.72;53.24
40490;BME280;26196;52.302;10.572;2023-04-29T07:31:33;100532.19;;;15.71;53.38
40490;BME280;26196;52.302;10.572;2023-04-29T07:35:34;100543.63;;;15.72;53.38
40490;BME280;26196;52.302;10.572;2023-04-29T07:39:34;100544.47;;;15.72;53.16
40490;BME280;26196;52.302;10.572;2023-04-29T07:43:35;100551.72;;;15.67;53.41
40490;BME280;26196;52.302;10.572;2023-04-29T07:48:10;100558.78;;;15.67;53.77
40490;BME280;26196;52.302;10.572;2023-04-29T07:52:10;100565.72;;;15.69;53.92
40490;BME280;26196;52.302;10.572;2023-04-29T07:56:45;100566.59;;;15.70;54.00
40490;BME280;26196;52.302;10.572;2023-04-29T08:05:42;100579.69;;;15.71;54.13
40490;BME280;26196;52.302;10.572;2023-04-29T08:09:44;100584.59;;;15.79;53.92
40490;BME280;26196;52.302;10.572;2023-04-29T08:13:44;100595.38;;;15.74;54.50
40490;BME280;26196;52.302;10.572;2023-04-29T08:18:21;100599.75;;;15.75;54.61
40490;BME280;26196;52.302;10.572;2023-04-29T08:22:59;100598.09;;;15.73;54.99
40490;BME280;26196;52.302;10.572;2023-04-29T08:27:03;100612.94;;;15.75;55.32
40490;BME280;26196;52.302;10.572;2023-04-29T08:31:03;100603.44;;;15.71;55.56
40490;BME280;26196;52.302;10.572;2023-04-29T08:35:06;100610.50;;;15.71;55.44
40490;BME280;26196;52.302;10.572;2023-04-29T08:39:07;100626.91;;;15.78;55.43
40490;BME280;26196;52.302;10.572;2023-04-29T08:43:09;100624.19;;;15.79;56.07
40490;BME280;26196;52.302;10.572;2023-04-29T08:47:43;100629.56;;;15.78;56.36
40490;BME280;26196;52.302;10.572;2023-04-29T08:51:48;100635.75;;;15.77;56.67
40490;BME280;26196;52.302;10.572;2023-04-29T08:56:19;100636.38;;;15.82;57.22
40490;BME280;26196;52.302;10.572;2023-04-29T09:00:54;100641.50;;;15.85;56.92
40490;BME280;26196;52.302;10.572;2023-04-29T09:05:06;100638.88;;;15.85;57.44
40490;BME280;26196;52.302;10.572;2023-04-29T09:09:29;100643.09;;;15.89;57.36
40490;BME280;26196;52.302;10.572;2023-04-29T09:14:06;100643.88;;;15.91;56.79
40490;BME280;26196;52.302;10.572;2023-04-29T09:18:46;100656.63;;;16.00;57.08
40490;BME280;26196;52.302;10.572;2023-04-29T09:23:21;100648.97;;;15.95;57.57
40490;BME280;26196;52.302;10.572;2023-04-29T09:27:57;100658.53;;;15.98;57.12
40490;BME280;26196;52.302;10.572;2023-04-29T09:32:34;100660.06;;;16.02;56.92
40490;BME280;26196;52.302;10.572;2023-04-29T09:37:22;100672.47;;;16.00;57.23
40490;BME280;26196;52.302;10.572;2023-04-29T09:41:22;100675.91;;;16.02;57.04
40490;BME280;26196;52.302;10.572;2023-04-29T09:45:36;100680.03;;;16.08;57.13
40490;BME280;26196;52.302;10.572;2023-04-29T09:50:11;100676.75;;;16.03;57.20
40490;BME280;26196;52.302;10.572;2023-04-29T09:54:46;100676.50;;;16.09;57.03
40490;BME280;26196;52.302;10.572;2023-04-29T09:58:46;100670.31;;;16.08;56.90
40490;BME280;26196;52.302;10.572;2023-04-29T10:07:24;100690.25;;;16.15;56.76
40490;BME280;26196;52.302;10.572;2023-04-29T10:11:26;100694.59;;;16.16;56.53
40490;BME280;26196;52.302;10.572;2023-04-29T10:15:34;100686.59;;;16.18;56.27
40490;BME280;26196;52.302;10.572;2023-04-29T10:19:39;100684.81;;;16.18;56.02
40490;BME280;26196;52.302;10.572;2023-04-29T10:23:43;100697.88;;;16.22;55.87
40490;BME280;26196;52.302;10.572;2023-04-29T10:27:45;100689.88;;;16.23;55.43
40490;BME280;26196;52.302;10.572;2023-04-29T10:32:19;100683.09;;;16.17;55.24
40490;BME280;26196;52.302;10.572;2023-04-29T10:36:55;100699.22;;;16.30;54.97
40490;BME280;26196;52.302;10.572;2023-04-29T10:40:57;100699.72;;;16.38;54.24
40490;BME280;26196;52.302;10.572;2023-04-29T10:49:35;100711.44;;;16.33;55.78
40490;BME280;26196;52.302;10.572;2023-04-29T11:03:07;100719.13;;;16.37;54.99
40490;BME280;26196;52.302;10.572;2023-04-29T11:07:28;100718.25;;;16.37;54.89
40490;BME280;26196;52.302;10.572;2023-04-29T11:11:48;100719.25;;;16.34;55.60
40490;BME280;26196;52.302;10.572;2023-04-29T11:16:24;100730.56;;;16.38;55.66
40490;BME280;26196;52.302;10.572;2023-04-29T11:20:27;100726.19;;;16.37;56.01
40490;BME280;26196;52.302;10.572;2023-04-29T11:24:27;100722.69;;;16.36;56.36
40490;BME280;26196;52.302;10.572;2023-04-29T11:29:03;100715.63;;;16.37;56.43
40490;BME280;26196;52.302;10.572;2023-04-29T11:33:04;100727.81;;;16.39;55.90
40490;BME280;26196;52.302;10.572;2023-04-29T11:41:41;100731.19;;;16.43;55.92
40490;BME280;26196;52.302;10.572;2023-04-29T11:46:16;100737.28;;;16.45;56.07
40490;BME280;26196;52.302;10.572;2023-04-29T11:50:57;100735.47;;;16.46;55.59
40490;BME280;26196;52.302;10.572;2023-04-29T11:54:58;100734.47;;;16.48;55.75
40490;BME280;26196;52.302;10.572;2023-04-29T11:58:59;100744.94;;;16.50;55.10
40490;BME280;26196;52.302;10.572;2023-04-29T12:03:01;100749.38;;;16.49;54.72
40490;BME280;26196;52.302;10.572;2023-04-29T12:07:08;100750.13;;;16.53;54.25
40490;BME280;26196;52.302;10.572;2023-04-29T12:11:09;100749.16;;;16.54;54.39
40490;BME280;26196;52.302;10.572;2023-04-29T12:15:10;100750.13;;;16.53;54.90
40490;BME280;26196;52.302;10.572;2023-04-29T12:19:11;100750.03;;;16.54;54.64
40490;BME280;26196;52.302;10.572;2023-04-29T12:23:16;100751.81;;;16.54;54.63
40490;BME280;26196;52.302;10.572;2023-04-29T12:27:49;100750.81;;;16.56;54.95
40490;BME280;26196;52.302;10.572;2023-04-29T12:31:49;100755.09;;;16.59;54.21
40490;BME280;26196;52.302;10.572;2023-04-29T12:36:27;100752.34;;;16.60;54.11
40490;BME280;26196;52.302;10.572;2023-04-29T12:40:28;100758.75;;;16.56;54.41
40490;BME280;26196;52.302;10.572;2023-04-29T12:44:37;100759.38;;;16.61;54.18
40490;BME280;26196;52.302;10.572;2023-04-29T12:48:39;100764.66;;;16.61;54.60
40490;BME280;26196;52.302;10.572;2023-04-29T12:53:14;100768.09;;;16.63;54.49
40490;BME280;26196;52.302;10.572;2023-04-29T12:57:14;100769.78;;;16.65;54.19
40490;BME280;26196;52.302;10.572;2023-04-29T13:01:49;100766.16;;;16.67;53.75
40490;BME280;26196;52.302;10.572;2023-04-29T13:05:50;100771.38;;;16.69;53.06
40490;BME280;26196;52.302;10.572;2023-04-29T13:09:52;100767.78;;;16.70;53.43
40490;BME280;26196;52.302;10.572;2023-04-29T13:14:30;100771.38;;;16.69;53.70
40490;BME280;26196;52.302;10.572;2023-04-29T13:18:30;100766.09;;;16.69;53.77
40490;BME280;26196;52.302;10.572;2023-04-29T13:22:31;100776.50;;;16.72;53.89
40490;BME280;26196;52.302;10.572;2023-04-29T13:27:05;100770.44;;;16.70;54.06
40490;BME280;26196;52.302;10.572;2023-04-29T13:31:06;100780.00;;;16.72;54.19
40490;BME280;26196;52.302;10.572;2023-04-29T13:35:07;100779.06;;;16.73;53.90
40490;BME280;26196;52.302;10.572;2023-04-29T13:39:08;100775.50;;;16.74;54.08
40490;BME280;26196;52.302;10.572;2023-04-29T13:43:08;100768.56;;;16.72;53.91
40490;BME280;26196;52.302;10.572;2023-04-29T13:47:43;100783.34;;;16.76;53.10
40490;BME280;26196;52.302;10.572;2023-04-29T13:51:44;100778.94;;;16.76;53.85
40490;BME280;26196;52.302;10.572;2023-04-29T13:55:44;100791.25;;;16.77;53.50
40490;BME280;26196;52.302;10.572;2023-04-29T14:04:23;100792.09;;;16.78;52.36
40490;BME280;26196;52.302;10.572;2023-04-29T14:08:57;100798.00;;;16.83;53.07
40490;BME280;26196;52.302;10.572;2023-04-29T14:12:58;100799.00;;;16.80;53.10
40490;BME280;26196;52.302;10.572;2023-04-29T14:16:58;100799.72;;;16.84;53.45
40490;BME280;26196;52.302;10.572;2023-04-29T14:21:00;100803.22;;;16.84;53.43
40490;BME280;26196;52.302;10.572;2023-04-29T14:25:00;100803.22;;;16.84;53.31
40490;BME280;26196;52.302;10.572;2023-04-29T14:33:58;100818.94;;;16.88;53.75
40490;BME280;26196;52.302;10.572;2023-04-29T14:38:35;100824.22;;;16.88;53.44
40490;BME280;26196;52.302;10.572;2023-04-29T14:43:13;100828.56;;;16.89;54.03
40490;BME280;26196;52.302;10.572;2023-04-29T14:47:47;100833.66;;;16.93;53.85
40490;BME280;26196;52.302;10.572;2023-04-29T14:52:25;100838.25;;;16.90;53.72
40490;BME280;26196;52.302;10.572;2023-04-29T14:56:25;100844.22;;;16.93;53.73
40490;BME280;26196;52.302;10.572;2023-04-29T15:00:26;100845.22;;;16.91;53.74
40490;BME280;26196;52.302;10.572;2023-04-29T15:05:01;100854.97;;;16.90;53.49
40490;BME280;26196;52.302;10.572;2023-04-29T15:09:36;100854.81;;;16.93;53.15
40490;BME280;26196;52.302;10.572;2023-04-29T15:14:14;100849.44;;;16.95;53.22
40490;BME280;26196;52.302;10.572;2023-04-29T15:18:49;100854.66;;;16.96;53.52
40490;BME280;26196;52.302;10.572;2023-04-29T15:22:49;100864.44;;;16.94;52.64
40490;BME280;26196;52.302;10.572;2023-04-29T15:31:46;100866.16;;;16.95;52.79
40490;BME280;26196;52.302;10.572;2023-04-29T15:41:00;100875.75;;;16.98;52.89
40490;BME280;26196;52.302;10.572;2023-04-29T15:45:35;100868.66;;;16.98;52.70
40490;BME280;26196;52.302;10.572;2023-04-29T15:50:09;100875.59;;;17.01;52.49
40490;BME280;26196;52.302;10.572;2023-04-29T15:54:47;100877.38;;;17.00;52.57
40490;BME280;26196;52.302;10.572;2023-04-29T15:59:21;100883.59;;;16.99;52.53
40490;BME280;26196;52.302;10.572;2023-04-29T16:03:59;100884.31;;;17.03;51.93
40490;BME280;26196;52.302;10.572;2023-04-29T16:08:37;100894.94;;;17.01;51.88
40490;BME280;26196;52.302;10.572;2023-04-29T16:13:14;100894.09;;;17.01;51.94
40490;BME280;26196;52.302;10.572;2023-04-29T16:17:15;100892.31;;;17.01;52.39
40490;BME280;26196;52.302;10.572;2023-04-29T16:21:52;100895.75;;;17.03;51.69
40490;BME280;26196;52.302;10.572;2023-04-29T16:25:52;100893.78;;;17.07;52.43
40490;BME280;26196;52.302;10.572;2023-04-29T16:29:53;100901.88;;;17.04;51.79
40490;BME280;26196;52.302;10.572;2023-04-29T16:33:54;100904.69;;;17.01;51.82
40490;BME280;26196;52.302;10.572;2023-04-29T16:42:52;100908.66;;;17.10;52.17
40490;BME280;26196;52.302;10.572;2023-04-29T16:47:27;100920.09;;;17.10;52.26
40490;BME280;26196;52.302;10.572;2023-04-29T16:52:05;100910.41;;;17.11;52.46
40490;BME280;26196;52.302;10.572;2023-04-29T16:56:40;100922.69;;;17.12;52.46
40490;BME280;26196;52.302;10.572;2023-04-29T17:00:40;100916.38;;;17.14;51.86
40490;BME280;26196;52.302;10.572;2023-04-29T17:04:40;100919.81;;;17.16;52.16
40490;BME280;26196;52.302;10.572;2023-04-29T17:09:15;100921.66;;;17.14;52.30
40490;BME280;26196;52.302;10.572;2023-04-29T17:13:15;100919.72;;;17.18;52.11
40490;BME280;26196;52.302;10.572;2023-04-29T17:17:53;100928.66;;;17.15;52.10
40490;BME280;26196;52.302;10.572;2023-04-29T17:22:28;100931.19;;;17.18;52.45
40490;BME280;26196;52.302;10.572;2023-04-29T17:26:28;100925.81;;;17.20;52.74
40490;BME280;26196;52.302;10.572;2023-04-29T17:30:29;100927.53;;;17.21;52.78
40490;BME280;26196;52.302;10.572;2023-04-29T17:35:05;100930.19;;;17.21;52.20
40490;BME280;26196;52.302;10.572;2023-04-29T17:44:03;100947.59;;;17.25;52.54
40490;BME280;26196;52.302;10.572;2023-04-29T17:48:37;100941.47;;;17.24;51.52
40490;BME280;26196;52.302;10.572;2023-04-29T17:53:15;100944.97;;;17.25;51.17
40490;BME280;26196;52.302;10.572;2023-04-29T18:02:27;100958.19;;;17.25;51.72
40490;BME280;26196;52.302;10.572;2023-04-29T18:06:27;100961.63;;;17.27;50.56
40490;BME280;26196;52.302;10.572;2023-04-29T18:15:25;100974.78;;;17.28;52.88
40490;BME280;26196;52.302;10.572;2023-04-29T18:19:26;100980.16;;;17.27;53.48
40490;BME280;26196;52.302;10.572;2023-04-29T18:24:00;100983.72;;;17.26;53.96
40490;BME280;26196;52.302;10.572;2023-04-29T18:28:38;100982.94;;;17.24;54.09
40490;BME280;26196;52.302;10.572;2023-04-29T18:33:13;100982.09;;;17.23;53.77
40490;BME280;26196;52.302;10.572;2023-04-29T18:37:49;100990.03;;;17.23;53.57
40490;BME280;26196;52.302;10.572;2023-04-29T18:42:26;100997.88;;;17.25;53.60
40490;BME280;26196;52.302;10.572;2023-04-29T18:47:01;100994.44;;;17.23;52.62
40490;BME280;26196;52.302;10.572;2023-04-29T18:51:36;101011.84;;;17.28;49.92
40490;BME280;26196;52.302;10.572;2023-04-29T18:56:10;101018.34;;;17.21;52.32
40490;BME280;26196;52.302;10.572;2023-04-29T19:00:48;101024.47;;;17.22;51.90
40490;BME280;26196;52.302;10.572;2023-04-29T19:05:25;101025.47;;;17.19;52.82
40490;BME280;26196;52.302;10.572;2023-04-29T19:10:00;101044.84;;;17.20;52.44
40490;BME280;26196;52.302;10.572;2023-04-29T19:14:36;101044.94;;;17.18;52.65
40490;BME280;26196;52.302;10.572;2023-04-29T19:19:11;101054.78;;;17.15;51.39
40490;BME280;26196;52.302;10.572;2023-04-29T19:32:23;101062.06;;;17.10;48.64
40490;BME280;26196;52.302;10.572;2023-04-29T19:41:35;101077.38;;;17.03;50.71
40490;BME280;26196;52.302;10.572;2023-04-29T19:50:46;101095.94;;;17.01;50.07
40490;BME280;26196;52.302;10.572;2023-04-29T20:03:58;101099.72;;;16.96;49.06
40490;BME280;26196;52.302;10.572;2023-04-29T20:08:33;101112.16;;;16.94;49.25
40490;BME280;26196;52.302;10.572;2023-04-29T20:12:33;101115.78;;;16.91;48.55
40490;BME280;26196;52.302;10.572;2023-04-29T20:17:08;101105.75;;;16.79;48.55
40490;BME280;26196;52.302;10.572;2023-04-29T20:21:43;101128.28;;;16.88;47.86
40490;BME280;26196;52.302;10.572;2023-04-29T20:26:20;101135.22;;;16.90;49.69
40490;BME280;26196;52.302;10.572;2023-04-29T20:35:32;101150.28;;;16.88;50.22
40490;BME280;26196;52.302;10.572;2023-04-29T20:39:33;101160.94;;;16.87;50.55
40490;BME280;26196;52.302;10.572;2023-04-29T20:43:33;101169.78;;;16.86;49.83
40490;BME280;26196;52.302;10.572;2023-04-29T20:48:08;101168.13;;;16.83;46.48
40490;BME280;26196;52.302;10.572;2023-04-29T20:52:45;101182.50;;;16.76;47.70
40490;BME280;26196;52.302;10.572;2023-04-29T20:56:46;101191.41;;;16.73;48.58
40490;BME280;26196;52.302;10.572;2023-04-29T21:00:47;101186.22;;;16.72;46.68
40490;BME280;26196;52.302;10.572;2023-04-29T21:05:21;101192.53;;;16.68;48.95
40490;BME280;26196;52.302;10.572;2023-04-29T21:09:22;101196.97;;;16.67;48.29
40490;BME280;26196;52.302;10.572;2023-04-29T21:13:22;101203.88;;;16.71;47.46
40490;BME280;26196;52.302;10.572;2023-04-29T21:17:59;101206.75;;;16.65;48.04
40490;BME280;26196;52.302;10.572;2023-04-29T21:22:34;101205.22;;;16.59;48.16
40490;BME280;26196;52.302;10.572;2023-04-29T21:27:11;101215.94;;;16.56;45.79
40490;BME280;26196;52.302;10.572;2023-04-29T21:36:26;101225.16;;;16.46;46.05
40490;BME280;26196;52.302;10.572;2023-04-29T21:40:27;101223.53;;;16.42;46.23
40490;BME280;26196;52.302;10.572;2023-04-29T21:44:28;101228.91;;;16.40;46.60
40490;BME280;26196;52.302;10.572;2023-04-29T21:48:28;101229.06;;;16.36;46.25
40490;BME280;26196;52.302;10.572;2023-04-29T21:53:06;101230.78;;;16.37;47.30
40490;BME280;26196;52.302;10.572;2023-04-29T21:57:06;101238.72;;;16.37;46.42
40490;BME280;26196;52.302;10.572;2023-04-29T22:01:43;101239.47;;;16.40;46.76
40490;BME280;26196;52.302;10.572;2023-04-29T22:05:45;101231.66;;;16.37;45.93
40490;BME280;26196;52.302;10.572;2023-04-29T22:10:23;101246.09;;;16.29;46.82
40490;BME280;26196;52.302;10.572;2023-04-29T22:14:23;101242.72;;;16.25;47.04
40490;BME280;26196;52.302;10.572;2023-04-29T22:19:01;101249.16;;;16.18;47.53
40490;BME280;26196;52.302;10.572;2023-04-29T22:23:01;101253.69;;;16.14;47.34
40490;BME280;26196;52.302;10.572;2023-04-29T22:27:01;101256.34;;;16.14;46.54
40490;BME280;26196;52.302;10.572;2023-04-29T22:31:02;101266.13;;;16.11;47.06
40490;BME280;26196;52.302;10.572;2023-04-29T22:35:03;101265.44;;;16.06;46.85
40490;BME280;26196;52.302;10.572;2023-04-29T22:43:40;101260.25;;;16.04;47.24
40490;BME280;26196;52.302;10.572;2023-04-29T22:47:41;101270.03;;;16.01;46.73
40490;BME280;26196;52.302;10.572;2023-04-29T22:52:16;101266.56;;;16.00;47.19
40490;BME280;26196;52.302;10.572;2023-04-29T22:56:16;101264.09;;;15.95;46.23
40490;BME280;26196;52.302;10.572;2023-04-29T23:00:17;101269.44;;;15.94;46.86
40490;BME280;26196;52.302;10.572;2023-04-29T23:04:17;101280.97;;;15.91;46.85
40490;BME280;26196;52.302;10.572;2023-04-29T23:08:55;101280.16;;;15.89;46.07
40490;BME280;26196;52.302;10.572;2023-04-29T23:12:55;101293.34;;;15.89;45.97
40490;BME280;26196;52.302;10.572;2023-04-29T23:16:55;101288.31;;;15.83;46.27
40490;BME280;26196;52.302;10.572;2023-04-29T23:20:56;101298.91;;;15.82;46.24
40490;BME280;26196;52.302;10.572;2023-04-29T23:24:56;101301.66;;;15.79;46.20
40490;BME280;26196;52.302;10.572;2023-04-29T23:28:56;101298.22;;;15.77;46.13
40490;BME280;26196;52.302;10.572;2023-04-29T23:32:57;101294.75;;;15.74;45.56
40490;BME280;26196;52.302;10.572;2023-04-29T23:37:35;101295.81;;;15.70;45.95
40490;BME280;26196;52.302;10.572;2023-04-29T23:41:35;101298.53;;;15.67;45.88
40490;BME280;26196;52.302;10.572;2023-04-29T23:45:35;101294.25;;;15.63;45.47
40490;BME280;26196;52.302;10.572;2023-04-29T23:50:13;101297.19;;;15.56;45.60
40490;BME280;26196;52.302;10.572;2023-04-29T23:54:13;101298.97;;;15.55;45.25
